createdAt,value
2018-09-17T00:01:31.546Z,13.19
2018-09-17T00:04:00.187Z,13.30
2018-09-17T00:06:28.850Z,13.33
2018-09-17T00:08:57.489Z,13.20
2018-09-17T00:11:26.170Z,13.02
2018-09-17T00:13:54.796Z,12.91
2018-09-17T00:16:23.469Z,12.88
2018-09-17T00:18:52.487Z,12.98
2018-09-17T00:21:21.098Z,13.08
2018-09-17T00:23:49.708Z,13.05
2018-09-17T00:26:18.409Z,13.04
2018-09-17T00:28:47.078Z,13.02
2018-09-17T00:31:15.743Z,13.00
2018-09-17T00:33:44.386Z,13.04
2018-09-17T00:36:13.017Z,12.96
2018-09-17T00:38:41.652Z,12.92
2018-09-17T00:41:10.305Z,12.79
2018-09-17T00:43:39.002Z,12.65
2018-09-17T00:46:08.017Z,12.58
2018-09-17T00:48:36.780Z,12.51
2018-09-17T00:51:05.999Z,12.37
2018-09-17T00:53:34.757Z,12.37
2018-09-17T00:56:03.802Z,12.31
2018-09-17T00:58:32.422Z,12.37
2018-09-17T01:01:01.805Z,12.51
2018-09-17T01:03:30.466Z,12.48
2018-09-17T01:05:59.106Z,12.38
2018-09-17T01:08:27.761Z,12.34
2018-09-17T01:10:56.410Z,12.32
2018-09-17T01:13:25.042Z,12.26
2018-09-17T01:15:53.659Z,12.28
2018-09-17T01:18:22.377Z,12.27
2018-09-17T01:20:51.269Z,12.35
2018-09-17T01:23:19.902Z,12.24
2018-09-17T01:25:48.553Z,12.08
2018-09-17T01:28:17.212Z,11.98
2018-09-17T01:30:45.842Z,11.91
2018-09-17T01:33:14.522Z,11.83
2018-09-17T01:35:43.174Z,11.71
2018-09-17T01:38:11.798Z,11.59
2018-09-17T01:40:40.469Z,11.53
2018-09-17T01:43:09.182Z,11.61
2018-09-17T01:45:37.876Z,11.55
2018-09-17T01:48:06.645Z,11.49
2018-09-17T01:50:35.343Z,11.42
2018-09-17T01:53:03.965Z,11.37
2018-09-17T01:55:32.587Z,11.33
2018-09-17T01:58:01.271Z,11.35
2018-09-17T02:00:29.993Z,11.45
2018-09-17T02:02:58.631Z,11.52
2018-09-17T02:05:27.267Z,11.55
2018-09-17T02:07:55.893Z,11.48
2018-09-17T02:10:24.552Z,11.37
2018-09-17T02:12:53.187Z,11.31
2018-09-17T02:15:21.834Z,11.40
2018-09-17T02:17:50.501Z,11.38
2018-09-17T02:20:19.140Z,11.38
2018-09-17T02:22:47.831Z,11.30
2018-09-17T02:25:16.449Z,11.46
2018-09-17T02:27:45.170Z,11.45
2018-09-17T02:30:14.188Z,11.44
2018-09-17T02:32:42.823Z,11.41
2018-09-17T02:35:11.506Z,11.42
2018-09-17T02:37:40.194Z,11.46
2018-09-17T02:40:14.081Z,11.38
2018-09-17T02:42:42.735Z,11.30
2018-09-17T02:45:11.418Z,11.24
2018-09-17T02:47:40.070Z,11.30
2018-09-17T02:50:08.728Z,11.38
2018-09-17T02:52:37.421Z,11.32
2018-09-17T02:55:06.790Z,11.26
2018-09-17T02:57:35.744Z,11.20
2018-09-17T03:00:04.745Z,11.08
2018-09-17T03:02:33.374Z,10.99
2018-09-17T03:05:02.078Z,11.07
2018-09-17T03:07:30.788Z,11.10
2018-09-17T03:09:59.513Z,11.06
2018-09-17T03:12:28.138Z,11.06
2018-09-17T03:14:56.754Z,11.07
2018-09-17T03:17:25.394Z,11.06
2018-09-17T03:19:54.017Z,11.05
2018-09-17T03:22:23.159Z,11.04
2018-09-17T03:24:51.785Z,10.99
2018-09-17T03:27:20.425Z,10.95
2018-09-17T03:29:49.053Z,10.96
2018-09-17T03:32:17.665Z,10.89
2018-09-17T03:34:46.318Z,10.84
2018-09-17T03:37:14.946Z,10.83
2018-09-17T03:39:43.598Z,10.90
2018-09-17T03:42:12.218Z,11.08
2018-09-17T03:44:40.873Z,11.07
2018-09-17T03:47:09.543Z,11.00
2018-09-17T03:49:38.274Z,11.16
2018-09-17T03:52:07.259Z,11.27
2018-09-17T03:54:35.925Z,11.16
2018-09-17T03:57:04.582Z,11.16
2018-09-17T03:59:33.254Z,11.12
2018-09-17T04:02:01.885Z,11.04
2018-09-17T04:04:30.513Z,10.97
2018-09-17T04:06:59.130Z,11.02
2018-09-17T04:09:27.754Z,11.06
2018-09-17T04:11:56.430Z,11.16
2018-09-17T04:14:25.070Z,11.19
2018-09-17T04:16:53.691Z,11.15
2018-09-17T04:19:22.350Z,11.03
2018-09-17T04:21:51.073Z,10.94
2018-09-17T04:26:54.641Z,10.90
2018-09-17T04:29:23.339Z,10.99
2018-09-17T04:31:51.969Z,11.06
2018-09-17T04:34:20.610Z,10.99
2018-09-17T04:36:49.241Z,10.95
2018-09-17T04:39:19.917Z,10.89
2018-09-17T04:41:48.565Z,10.82
2018-09-17T04:44:17.211Z,10.84
2018-09-17T04:46:45.939Z,10.88
2018-09-17T04:49:14.598Z,11.02
2018-09-17T04:51:43.279Z,11.09
2018-09-17T04:54:11.967Z,11.19
2018-09-17T04:56:40.605Z,11.21
2018-09-17T04:59:09.262Z,11.22
2018-09-17T05:01:37.913Z,11.33
2018-09-17T05:04:06.556Z,11.39
2018-09-17T05:06:35.253Z,11.44
2018-09-17T05:09:05.326Z,11.48
2018-09-17T05:11:33.963Z,11.55
2018-09-17T05:14:02.587Z,11.67
2018-09-17T05:16:31.277Z,11.95
2018-09-17T05:18:59.937Z,12.13
2018-09-17T05:21:29.627Z,12.22
2018-09-17T05:23:58.361Z,12.34
2018-09-17T05:26:27.046Z,12.53
2018-09-17T05:28:55.731Z,12.70
2018-09-17T05:31:24.397Z,12.96
2018-09-17T05:33:53.290Z,13.17
2018-09-17T05:36:21.909Z,13.42
2018-09-17T05:38:50.534Z,13.62
2018-09-17T05:41:19.181Z,13.76
2018-09-17T05:43:47.923Z,13.93
2018-09-17T05:46:16.611Z,14.13
2018-09-17T05:48:46.032Z,14.38
2018-09-17T05:51:16.497Z,14.62
2018-09-17T05:53:45.190Z,14.86
2018-09-17T05:56:14.033Z,15.06
2018-09-17T05:58:42.685Z,15.27
2018-09-17T06:01:11.318Z,15.55
2018-09-17T06:03:39.946Z,16.30
2018-09-17T06:06:08.663Z,17.48
2018-09-17T06:08:37.528Z,18.82
2018-09-17T06:11:06.204Z,20.28
2018-09-17T06:13:35.038Z,20.93
2018-09-17T06:16:03.682Z,21.51
2018-09-17T06:18:32.301Z,21.92
2018-09-17T06:21:00.957Z,22.21
2018-09-17T06:23:29.626Z,22.62
2018-09-17T06:25:58.297Z,23.62
2018-09-17T06:28:26.977Z,24.52
2018-09-17T06:30:56.195Z,25.05
2018-09-17T06:33:25.450Z,25.65
2018-09-17T06:35:56.813Z,26.15
2018-09-17T06:38:26.077Z,26.25
2018-09-17T06:40:55.422Z,25.73
2018-09-17T06:43:24.642Z,25.07
2018-09-17T06:45:53.847Z,24.45
2018-09-17T06:48:23.058Z,24.10
2018-09-17T06:50:52.321Z,23.85
2018-09-17T06:53:21.553Z,23.68
2018-09-17T06:55:50.795Z,23.97
2018-09-17T06:58:20.010Z,24.28
2018-09-17T07:00:49.286Z,24.54
2018-09-17T07:03:18.586Z,24.81
2018-09-17T07:05:47.815Z,24.98
2018-09-17T07:08:17.037Z,25.35
2018-09-17T07:10:46.305Z,26.59
2018-09-17T07:13:15.855Z,27.60
2018-09-17T07:15:45.105Z,28.67
2018-09-17T07:18:14.323Z,28.48
2018-09-17T07:20:43.549Z,27.90
2018-09-17T07:23:12.778Z,26.90
2018-09-17T07:25:42.125Z,26.81
2018-09-17T07:28:11.405Z,27.29
2018-09-17T07:30:40.641Z,27.65
2018-09-17T07:33:09.919Z,27.90
2018-09-17T07:35:39.157Z,28.89
2018-09-17T07:38:08.386Z,30.78
2018-09-17T07:40:37.730Z,32.12
2018-09-17T07:43:07.774Z,32.89
2018-09-17T07:45:37.062Z,33.39
2018-09-17T07:48:06.337Z,34.12
2018-09-17T07:50:35.584Z,33.79
2018-09-17T07:53:04.873Z,34.30
2018-09-17T07:55:34.111Z,33.59
2018-09-17T07:58:03.353Z,32.39
2018-09-17T08:00:32.578Z,32.43
2018-09-17T08:03:01.831Z,33.24
2018-09-17T08:05:31.136Z,34.31
2018-09-17T08:08:00.554Z,34.21
2018-09-17T08:10:29.778Z,34.34
2018-09-17T08:12:59.024Z,33.56
2018-09-17T08:15:28.247Z,32.33
2018-09-17T08:17:57.501Z,31.37
2018-09-17T08:20:26.726Z,30.62
2018-09-17T08:22:55.949Z,30.24
2018-09-17T08:25:25.155Z,30.08
2018-09-17T08:27:54.559Z,30.53
2018-09-17T08:30:23.819Z,31.17
2018-09-17T08:32:53.156Z,31.97
2018-09-17T08:35:22.438Z,31.68
2018-09-17T08:37:51.702Z,31.44
2018-09-17T08:40:20.917Z,30.95
2018-09-17T08:42:50.190Z,30.55
2018-09-17T08:45:19.448Z,28.99
2018-09-17T08:47:48.702Z,27.82
2018-09-17T08:50:17.941Z,27.18
2018-09-17T08:52:53.827Z,26.85
2018-09-17T08:56:29.980Z,26.67
2018-09-17T08:59:03.349Z,26.39
2018-09-17T09:02:37.570Z,26.29
2018-09-17T09:05:12.239Z,25.83
2018-09-17T09:07:46.801Z,25.51
2018-09-17T09:10:19.673Z,25.57
2018-09-17T09:13:56.022Z,25.64
2018-09-17T09:16:26.172Z,25.91
2018-09-17T09:18:55.388Z,26.02
2018-09-17T09:21:24.710Z,26.06
2018-09-17T09:23:53.942Z,26.13
2018-09-17T09:26:23.203Z,26.21
2018-09-17T09:28:52.422Z,26.17
2018-09-17T09:31:21.682Z,26.14
2018-09-17T09:33:50.932Z,25.97
2018-09-17T09:36:20.154Z,25.91
2018-09-17T09:38:49.378Z,25.92
2018-09-17T09:41:18.590Z,25.85
2018-09-17T09:43:47.888Z,25.62
2018-09-17T09:46:17.178Z,25.53
2018-09-17T09:48:46.598Z,25.51
2018-09-17T09:51:16.033Z,25.41
2018-09-17T09:53:45.237Z,25.49
2018-09-17T09:56:14.478Z,25.47
2018-09-17T09:58:43.741Z,25.57
2018-09-17T10:01:18.015Z,25.64
2018-09-17T10:03:51.418Z,25.68
2018-09-17T10:06:20.665Z,25.74
2018-09-17T10:08:55.302Z,25.78
2018-09-17T10:11:29.820Z,25.76
2018-09-17T10:14:04.290Z,25.61
2018-09-17T10:16:33.569Z,25.53
2018-09-17T10:19:07.982Z,25.54
2018-09-17T10:21:37.202Z,25.59
2018-09-17T10:24:06.443Z,25.64
2018-09-17T10:26:35.789Z,25.58
2018-09-17T10:29:05.085Z,25.53
2018-09-17T10:31:34.339Z,25.57
2018-09-17T10:34:03.566Z,25.60
2018-09-17T10:36:32.817Z,25.62
2018-09-17T10:39:02.021Z,25.70
2018-09-17T10:41:31.231Z,25.77
2018-09-17T10:44:00.478Z,25.78
2018-09-17T10:46:29.678Z,25.84
2018-09-17T10:48:58.882Z,25.81
2018-09-17T10:51:28.089Z,25.77
2018-09-17T10:53:57.318Z,25.78
2018-09-17T10:56:26.572Z,25.77
2018-09-17T10:58:55.813Z,25.81
2018-09-17T11:01:25.042Z,25.82
2018-09-17T11:03:54.318Z,25.88
2018-09-17T11:06:23.535Z,25.95
2018-09-17T11:08:52.809Z,26.00
2018-09-17T11:11:22.029Z,26.01
2018-09-17T11:13:51.225Z,25.97
2018-09-17T11:16:20.525Z,25.95
2018-09-17T11:18:49.738Z,25.98
2018-09-17T11:21:19.042Z,26.02
2018-09-17T11:23:48.285Z,26.03
2018-09-17T11:26:17.484Z,26.01
2018-09-17T11:28:46.765Z,25.97
2018-09-17T11:31:15.998Z,25.96
2018-09-17T11:33:45.225Z,25.96
2018-09-17T11:36:14.445Z,25.94
2018-09-17T11:38:43.704Z,25.92
2018-09-17T11:41:13.001Z,25.85
2018-09-17T11:43:42.364Z,25.68
2018-09-17T11:46:11.585Z,25.53
2018-09-17T11:48:40.774Z,25.46
2018-09-17T11:51:09.966Z,25.35
2018-09-17T11:53:39.244Z,25.35
2018-09-17T11:56:08.642Z,25.30
2018-09-17T11:58:37.889Z,25.24
2018-09-17T12:01:12.328Z,25.20
2018-09-17T12:03:46.729Z,25.24
2018-09-17T12:06:21.182Z,25.30
2018-09-17T12:08:50.464Z,25.36
2018-09-17T12:11:19.694Z,25.41
2018-09-17T12:13:48.901Z,25.51
2018-09-17T12:16:18.189Z,25.58
2018-09-17T12:18:47.437Z,25.58
2018-09-17T12:21:16.682Z,25.62
2018-09-17T12:23:45.921Z,25.65
2018-09-17T12:26:15.114Z,25.68
2018-09-17T12:28:44.468Z,25.73
2018-09-17T12:31:13.665Z,25.76
2018-09-17T12:33:42.912Z,25.81
2018-09-17T12:36:12.344Z,25.85
2018-09-17T12:38:41.546Z,25.72
2018-09-17T12:41:10.806Z,25.70
2018-09-17T12:43:40.026Z,25.69
2018-09-17T12:46:09.296Z,25.73
2018-09-17T12:48:38.606Z,25.74
2018-09-17T12:51:07.837Z,25.79
2018-09-17T12:53:37.109Z,25.89
2018-09-17T12:56:06.315Z,25.97
2018-09-17T12:58:35.590Z,25.97
2018-09-17T13:01:04.798Z,25.92
2018-09-17T13:03:34.098Z,25.85
2018-09-17T13:06:03.314Z,25.82
2018-09-17T13:08:32.531Z,25.88
2018-09-17T13:11:01.785Z,25.95
2018-09-17T13:13:31.065Z,26.02
2018-09-17T13:16:00.346Z,25.95
2018-09-17T13:18:29.559Z,25.86
2018-09-17T13:20:58.751Z,25.82
2018-09-17T13:23:28.005Z,25.81
2018-09-17T13:25:57.777Z,25.81
2018-09-17T13:28:27.673Z,25.85
2018-09-17T13:30:57.731Z,25.92
2018-09-17T13:33:27.043Z,25.97
2018-09-17T13:35:56.477Z,25.95
2018-09-17T13:38:25.682Z,25.98
2018-09-17T13:40:55.045Z,26.05
2018-09-17T13:43:24.264Z,26.05
2018-09-17T13:45:53.518Z,26.01
2018-09-17T13:48:23.776Z,26.01
2018-09-17T13:50:53.038Z,25.92
2018-09-17T13:53:22.326Z,25.83
2018-09-17T13:55:51.809Z,25.75
2018-09-17T13:58:21.807Z,25.67
2018-09-17T14:00:51.080Z,25.65
2018-09-17T14:03:20.302Z,25.65
2018-09-17T14:05:49.490Z,25.64
2018-09-17T14:08:18.721Z,25.60
2018-09-17T14:10:47.906Z,25.63
2018-09-17T14:13:17.286Z,25.60
2018-09-17T14:15:51.766Z,25.50
2018-09-17T14:18:21.044Z,25.56
2018-09-17T14:20:50.362Z,25.47
2018-09-17T14:23:19.763Z,25.35
2018-09-17T14:25:48.992Z,25.40
2018-09-17T14:28:18.278Z,25.40
2018-09-17T14:30:47.661Z,25.33
2018-09-17T14:33:22.103Z,25.28
2018-09-17T14:35:51.344Z,25.21
2018-09-17T14:38:20.652Z,25.19
2018-09-17T14:40:49.844Z,25.15
2018-09-17T14:43:19.057Z,25.10
2018-09-17T14:45:48.443Z,25.05
2018-09-17T14:48:17.701Z,24.89
2018-09-17T14:50:47.026Z,24.84
2018-09-17T14:53:16.292Z,24.78
2018-09-17T14:55:45.773Z,24.71
2018-09-17T14:58:15.151Z,24.73
2018-09-17T15:00:44.643Z,24.75
2018-09-17T15:03:13.914Z,24.61
2018-09-17T15:05:43.174Z,24.55
2018-09-17T15:08:12.458Z,24.44
2018-09-17T15:10:41.810Z,24.28
2018-09-17T15:13:11.038Z,24.22
2018-09-17T15:15:47.109Z,24.20
2018-09-17T15:18:16.773Z,24.24
2018-09-17T15:20:46.077Z,24.18
2018-09-17T15:23:15.341Z,24.18
2018-09-17T15:25:44.583Z,24.15
2018-09-17T15:28:13.899Z,24.11
2018-09-17T15:30:43.632Z,24.01
2018-09-17T15:33:12.888Z,24.01
2018-09-17T15:35:42.139Z,23.88
2018-09-17T15:38:11.479Z,23.82
2018-09-17T15:40:40.980Z,23.67
2018-09-17T15:43:11.072Z,23.60
2018-09-17T15:45:40.297Z,23.57
2018-09-17T15:48:09.837Z,23.54
2018-09-17T15:50:39.198Z,23.46
2018-09-17T15:53:09.073Z,23.42
2018-09-17T15:55:38.372Z,23.30
2018-09-17T15:58:07.914Z,23.20
2018-09-17T16:00:37.377Z,23.12
2018-09-17T16:03:06.630Z,23.00
2018-09-17T16:05:36.102Z,22.96
2018-09-17T16:08:05.895Z,22.96
2018-09-17T16:10:35.192Z,22.95
2018-09-17T16:13:04.525Z,22.85
2018-09-17T16:15:35.773Z,22.66
2018-09-17T16:18:05.237Z,22.45
2018-09-17T16:20:34.487Z,22.36
2018-09-17T16:23:03.806Z,22.29
2018-09-17T16:25:33.017Z,22.13
2018-09-17T16:28:02.344Z,22.01
2018-09-17T16:30:31.538Z,21.83
2018-09-17T16:33:00.928Z,21.72
2018-09-17T16:35:30.201Z,21.61
2018-09-17T16:37:59.510Z,21.47
2018-09-17T16:40:28.909Z,21.34
2018-09-17T16:42:58.225Z,21.19
2018-09-17T16:45:27.465Z,21.16
2018-09-17T16:47:56.790Z,21.12
2018-09-17T16:50:26.044Z,21.02
2018-09-17T16:52:56.048Z,20.96
2018-09-17T16:55:25.374Z,21.09
2018-09-17T16:57:54.726Z,21.09
2018-09-17T17:00:24.674Z,21.03
2018-09-17T17:02:53.899Z,20.97
2018-09-17T17:05:23.197Z,20.85
2018-09-17T17:07:53.455Z,20.69
2018-09-17T17:10:22.860Z,20.55
2018-09-17T17:12:52.168Z,20.42
2018-09-17T17:15:21.454Z,20.34
2018-09-17T17:17:50.992Z,20.21
2018-09-17T17:20:21.587Z,20.10
2018-09-17T17:22:50.966Z,19.90
2018-09-17T17:25:20.322Z,19.69
2018-09-17T17:27:49.679Z,19.55
2018-09-17T17:30:19.217Z,19.47
2018-09-17T17:32:48.665Z,19.43
2018-09-17T17:35:17.446Z,19.44
2018-09-17T17:37:46.115Z,19.35
2018-09-17T17:40:15.586Z,19.30
2018-09-17T17:42:44.378Z,19.09
2018-09-17T17:45:13.028Z,19.11
2018-09-17T17:47:41.761Z,19.09
2018-09-17T17:50:10.439Z,19.01
2018-09-17T17:52:39.134Z,19.00
2018-09-17T17:55:07.859Z,18.93
2018-09-17T17:57:37.286Z,18.85
2018-09-17T18:00:07.594Z,18.77
2018-09-17T18:02:36.481Z,18.73
2018-09-17T18:05:05.194Z,18.70
2018-09-17T18:07:34.218Z,18.68
2018-09-17T18:10:02.860Z,18.63
2018-09-17T18:12:31.605Z,18.52
2018-09-17T18:15:00.364Z,18.37
2018-09-17T18:17:29.213Z,18.24
2018-09-17T18:19:58.038Z,18.13
2018-09-17T18:22:26.690Z,17.98
2018-09-17T18:24:55.458Z,17.99
2018-09-17T18:27:24.347Z,17.96
2018-09-17T18:29:53.158Z,17.82
2018-09-17T18:32:21.922Z,17.73
2018-09-17T18:34:50.805Z,17.67
2018-09-17T18:37:19.608Z,17.60
2018-09-17T18:39:48.637Z,17.53
2018-09-17T18:42:17.423Z,17.51
2018-09-17T18:44:46.286Z,17.42
2018-09-17T18:47:15.676Z,17.30
2018-09-17T18:49:44.399Z,17.32
2018-09-17T18:52:13.111Z,17.27
2018-09-17T18:54:41.803Z,17.20
2018-09-17T18:57:10.584Z,17.31
2018-09-17T18:59:39.376Z,17.30
2018-09-17T19:02:08.673Z,17.08
2018-09-17T19:04:37.338Z,16.85
2018-09-17T19:07:06.028Z,16.84
2018-09-17T19:09:50.673Z,16.82
2018-09-17T19:12:20.436Z,16.76
2018-09-17T19:14:54.573Z,16.73
2018-09-17T19:17:28.663Z,16.74
2018-09-17T19:19:57.511Z,16.86
2018-09-17T19:22:31.523Z,16.82
2018-09-17T19:25:00.210Z,16.80
2018-09-17T19:27:34.055Z,16.82
2018-09-17T19:30:02.800Z,16.77
2018-09-17T19:32:31.442Z,16.68
2018-09-17T19:35:00.246Z,16.59
2018-09-17T19:37:34.130Z,16.52
2018-09-17T19:40:08.032Z,16.56
2018-09-17T19:42:36.939Z,16.58
2018-09-17T19:45:10.963Z,16.57
2018-09-17T19:47:39.648Z,16.65
2018-09-17T19:50:13.842Z,16.58
2018-09-17T19:52:42.575Z,16.44
2018-09-17T19:55:11.276Z,16.38
2018-09-17T19:57:45.299Z,16.36
2018-09-17T20:00:14.051Z,16.31
2018-09-17T20:02:42.977Z,16.38
2018-09-17T20:05:16.798Z,16.35
2018-09-17T20:07:45.439Z,16.26
2018-09-17T20:10:14.186Z,16.16
2018-09-17T20:12:43.032Z,16.23
2018-09-17T20:15:11.738Z,16.19
2018-09-17T20:17:40.444Z,16.12
2018-09-17T20:20:09.080Z,16.10
2018-09-17T20:22:37.730Z,16.09
2018-09-17T20:25:06.459Z,16.00
2018-09-17T20:27:35.145Z,15.91
2018-09-17T20:30:04.138Z,15.81
2018-09-17T20:32:33.023Z,15.73
2018-09-17T20:35:02.081Z,15.77
2018-09-17T20:37:30.718Z,15.78
2018-09-17T20:39:59.479Z,15.78
2018-09-17T20:42:28.122Z,15.80
2018-09-17T20:44:59.982Z,15.76
2018-09-17T20:47:33.083Z,15.75
2018-09-17T20:50:01.954Z,15.75
2018-09-17T20:52:30.777Z,15.70
2018-09-17T20:54:59.485Z,15.66
2018-09-17T20:57:28.274Z,15.72
2018-09-17T20:59:56.957Z,15.65
2018-09-17T21:02:25.649Z,15.57
2018-09-17T21:04:54.379Z,15.47
2018-09-17T21:07:23.130Z,15.51
2018-09-17T21:09:51.899Z,15.54
2018-09-17T21:12:20.628Z,15.53
2018-09-17T21:14:49.313Z,15.45
2018-09-17T21:17:18.041Z,15.43
2018-09-17T21:19:46.719Z,15.47
2018-09-17T21:22:15.375Z,15.39
2018-09-17T21:24:44.287Z,15.25
2018-09-17T21:27:12.964Z,15.14
2018-09-17T21:29:41.632Z,15.14
2018-09-17T21:32:10.272Z,15.19
2018-09-17T21:34:38.951Z,15.15
2018-09-17T21:37:07.601Z,15.15
2018-09-17T21:39:36.470Z,15.05
2018-09-17T21:42:05.174Z,14.88
2018-09-17T21:44:33.865Z,14.80
2018-09-17T21:47:02.549Z,14.71
2018-09-17T21:49:31.166Z,14.65
2018-09-17T21:51:59.793Z,14.58
2018-09-17T21:54:28.449Z,14.68
2018-09-17T21:56:57.084Z,14.76
2018-09-17T21:59:25.789Z,14.69
2018-09-17T22:01:54.702Z,14.77
2018-09-17T22:04:23.359Z,14.68
2018-09-17T22:06:52.300Z,14.57
2018-09-17T22:09:20.933Z,14.45
2018-09-17T22:11:50.300Z,14.32
2018-09-17T22:14:18.973Z,14.32
2018-09-17T22:16:47.613Z,14.31
2018-09-17T22:19:16.226Z,14.38
2018-09-17T22:21:44.840Z,14.30
2018-09-17T22:24:13.490Z,14.21
2018-09-17T22:26:42.145Z,14.10
2018-09-17T22:29:10.882Z,14.06
2018-09-17T22:31:39.725Z,14.04
2018-09-17T22:34:08.492Z,14.15
2018-09-17T22:36:37.432Z,14.26
2018-09-17T22:39:08.650Z,14.42
2018-09-17T22:41:37.626Z,14.40
2018-09-17T22:44:06.352Z,14.46
2018-09-17T22:46:34.949Z,14.35
2018-09-17T22:49:03.544Z,14.25
2018-09-17T22:51:32.163Z,14.20
2018-09-17T22:54:00.801Z,14.21
2018-09-17T22:56:29.384Z,14.20
2018-09-17T22:58:58.011Z,14.17
2018-09-17T23:01:26.602Z,14.24
2018-09-17T23:03:55.188Z,14.23
2018-09-17T23:06:23.836Z,14.29
2018-09-17T23:08:52.431Z,14.32
2018-09-17T23:11:21.019Z,14.21
2018-09-17T23:13:49.664Z,14.11
2018-09-17T23:16:18.944Z,14.16
2018-09-17T23:18:47.572Z,14.13
2018-09-17T23:21:16.237Z,14.25
2018-09-17T23:23:44.900Z,14.27
2018-09-17T23:26:13.509Z,14.23
2018-09-17T23:28:42.095Z,14.41
2018-09-17T23:31:10.831Z,14.38
2018-09-17T23:33:39.423Z,14.45
2018-09-17T23:36:08.397Z,14.39
2018-09-17T23:38:37.070Z,14.25
2018-09-17T23:41:05.679Z,14.21
2018-09-17T23:43:34.320Z,14.34
2018-09-17T23:46:02.896Z,14.33
2018-09-17T23:48:31.624Z,14.28
2018-09-17T23:51:00.344Z,14.14
2018-09-17T23:53:28.928Z,14.13
2018-09-17T23:55:57.564Z,14.08
2018-09-17T23:58:26.148Z,14.07
